createdAt,value
2023-03-06T00:00:53.047Z,999.1
2023-03-06T00:01:53.052Z,999.1
2023-03-06T00:02:53.087Z,999.0
2023-03-06T00:03:53.133Z,999.1
2023-03-06T00:04:53.076Z,999.1
2023-03-06T00:05:53.185Z,999.0
2023-03-06T00:06:53.124Z,999.1
2023-03-06T00:07:53.133Z,999.1
2023-03-06T00:08:53.144Z,999.0
2023-03-06T00:09:53.160Z,999.0
2023-03-06T00:10:53.174Z,999.0
2023-03-06T00:11:53.180Z,999.0
2023-03-06T00:12:53.205Z,999.0
2023-03-06T00:13:53.244Z,998.9
2023-03-06T00:14:53.224Z,998.9
2023-03-06T00:15:53.404Z,998.9
2023-03-06T00:16:53.269Z,998.9
2023-03-06T00:17:53.277Z,998.9
2023-03-06T00:18:53.300Z,998.9
2023-03-06T00:19:53.311Z,998.9
2023-03-06T00:20:53.336Z,998.8
2023-03-06T00:21:53.348Z,998.8
2023-03-06T00:22:53.373Z,998.8
2023-03-06T00:23:53.383Z,998.8
2023-03-06T00:24:53.397Z,998.7
2023-03-06T00:25:53.411Z,998.8
2023-03-06T00:26:53.435Z,998.7
2023-03-06T00:27:53.490Z,998.8
2023-03-06T00:28:53.450Z,998.8
2023-03-06T00:29:53.443Z,998.7
2023-03-06T00:30:53.476Z,998.7
2023-03-06T00:31:53.486Z,998.9
2023-03-06T00:32:53.523Z,998.8
2023-03-06T00:33:53.517Z,998.7
2023-03-06T00:34:53.524Z,998.8
2023-03-06T00:35:53.640Z,998.8
2023-03-06T00:36:53.527Z,998.8
2023-03-06T00:37:53.527Z,998.8
2023-03-06T00:38:53.558Z,998.8
2023-03-06T00:39:53.574Z,998.8
2023-03-06T00:40:53.592Z,998.8
2023-03-06T00:41:53.606Z,998.8
2023-03-06T00:42:53.629Z,998.8
2023-03-06T00:43:53.610Z,998.8
2023-03-06T00:44:53.643Z,998.8
2023-03-06T00:45:53.682Z,998.8
2023-03-06T00:46:53.646Z,998.9
2023-03-06T00:47:53.700Z,998.8
2023-03-06T00:48:53.663Z,998.9
2023-03-06T00:49:53.680Z,998.8
2023-03-06T00:50:53.680Z,998.9
2023-03-06T00:51:53.701Z,998.8
2023-03-06T00:52:53.758Z,998.8
2023-03-06T00:53:53.727Z,998.8
2023-03-06T00:54:53.751Z,998.8
2023-03-06T00:55:53.798Z,998.8
2023-03-06T00:56:53.789Z,998.8
2023-03-06T00:57:53.790Z,998.8
2023-03-06T00:58:53.819Z,998.9
2023-03-06T00:59:53.838Z,998.8
2023-03-06T01:00:53.915Z,998.8
2023-03-06T01:01:53.955Z,998.9
2023-03-06T01:02:53.948Z,998.9
2023-03-06T01:03:53.870Z,998.9
2023-03-06T01:04:53.901Z,998.9
2023-03-06T01:05:53.904Z,998.9
2023-03-06T01:06:53.908Z,998.8
2023-03-06T01:07:53.951Z,998.8
2023-03-06T01:08:53.926Z,998.8
2023-03-06T01:09:53.946Z,998.8
2023-03-06T01:10:53.946Z,998.8
2023-03-06T01:11:53.981Z,998.8
2023-03-06T01:12:53.985Z,998.8
2023-03-06T01:13:53.994Z,998.8
2023-03-06T01:14:54.013Z,998.9
2023-03-06T01:15:54.025Z,998.9
2023-03-06T01:16:54.028Z,998.8
2023-03-06T01:34:54.514Z,998.7
2023-03-06T01:35:54.415Z,998.7
2023-03-06T01:36:54.324Z,998.7
2023-03-06T01:37:54.305Z,998.7
2023-03-06T01:38:54.328Z,998.8
2023-03-06T01:39:54.342Z,998.8
2023-03-06T01:40:54.358Z,998.7
2023-03-06T01:41:54.379Z,998.7
2023-03-06T01:42:54.391Z,998.7
2023-03-06T01:43:54.387Z,998.7
2023-03-06T01:44:54.397Z,998.7
2023-03-06T01:45:54.486Z,998.7
2023-03-06T01:46:54.407Z,998.6
2023-03-06T01:47:54.440Z,998.7
2023-03-06T01:48:54.423Z,998.6
2023-03-06T01:49:54.427Z,998.6
2023-03-06T01:50:54.443Z,998.6
2023-03-06T01:51:54.446Z,998.6
2023-03-06T01:52:54.457Z,998.6
2023-03-06T01:53:54.454Z,998.7
2023-03-06T01:54:54.462Z,998.7
2023-03-06T01:55:54.466Z,998.6
2023-03-06T01:56:54.511Z,998.6
2023-03-06T01:57:54.477Z,998.6
2023-03-06T01:58:54.488Z,998.6
2023-03-06T01:59:54.492Z,998.5
2023-03-06T02:00:54.589Z,998.5
2023-03-06T02:01:54.642Z,998.6
2023-03-06T02:02:54.531Z,998.6
2023-03-06T02:03:54.537Z,998.6
2023-03-06T02:04:54.529Z,998.6
2023-03-06T02:05:54.525Z,998.6
2023-03-06T02:06:54.538Z,998.5
2023-03-06T02:07:54.539Z,998.5
2023-03-06T02:08:54.552Z,998.5
2023-03-06T02:09:54.558Z,998.5
2023-03-06T02:10:54.567Z,998.5
2023-03-06T02:11:54.573Z,998.5
2023-03-06T02:12:54.580Z,998.4
2023-03-06T02:13:54.588Z,998.5
2023-03-06T02:14:54.618Z,998.5
2023-03-06T02:15:54.620Z,998.5
2023-03-06T02:16:54.658Z,998.5
2023-03-06T02:17:54.642Z,998.4
2023-03-06T02:18:54.635Z,998.5
2023-03-06T02:19:54.638Z,998.5
2023-03-06T02:20:54.654Z,998.4
2023-03-06T02:21:54.663Z,998.5
2023-03-06T02:22:54.690Z,998.4
2023-03-06T02:23:54.685Z,998.4
2023-03-06T02:24:54.693Z,998.5
2023-03-06T02:25:54.701Z,998.4
2023-03-06T02:26:54.734Z,998.4
2023-03-06T02:27:54.723Z,998.4
2023-03-06T02:28:54.717Z,998.4
2023-03-06T02:29:54.725Z,998.5
2023-03-06T02:30:54.916Z,998.4
2023-03-06T02:31:54.754Z,998.4
2023-03-06T02:32:54.774Z,998.4
2023-03-06T02:33:54.760Z,998.4
2023-03-06T02:34:54.783Z,998.3
2023-03-06T02:35:54.924Z,998.3
2023-03-06T02:36:54.783Z,998.3
2023-03-06T02:37:54.793Z,998.3
2023-03-06T02:38:54.793Z,998.3
2023-03-06T02:39:54.816Z,998.3
2023-03-06T02:40:54.813Z,998.3
2023-03-06T02:41:54.823Z,998.4
2023-03-06T02:42:54.830Z,998.4
2023-03-06T02:43:54.832Z,998.3
2023-03-06T02:44:54.861Z,998.4
2023-03-06T02:45:54.931Z,998.2
2023-03-06T02:46:54.841Z,998.3
2023-03-06T02:47:54.849Z,998.3
2023-03-06T02:48:54.864Z,998.3
2023-03-06T02:49:54.867Z,998.2
2023-03-06T02:50:54.867Z,998.2
2023-03-06T02:51:54.916Z,998.1
2023-03-06T02:52:54.896Z,998.0
2023-03-06T02:53:54.904Z,998.1
2023-03-06T02:54:54.909Z,998.0
2023-03-06T02:55:54.902Z,998.0
2023-03-06T02:56:54.919Z,998.0
2023-03-06T02:57:54.925Z,998.0
2023-03-06T02:58:54.920Z,998.0
2023-03-06T02:59:54.936Z,998.0
2023-03-06T03:00:54.956Z,998.0
2023-03-06T03:01:54.961Z,997.9
2023-03-06T03:02:54.970Z,997.9
2023-03-06T03:03:54.960Z,998.0
2023-03-06T03:04:55.199Z,997.9
2023-03-06T03:05:54.968Z,997.9
2023-03-06T03:06:54.982Z,997.8
2023-03-06T03:07:55.036Z,997.9
2023-03-06T03:08:54.985Z,997.9
2023-03-06T03:09:55.010Z,997.8
2023-03-06T03:10:55.022Z,997.8
2023-03-06T03:11:55.022Z,997.8
2023-03-06T03:12:55.006Z,997.8
2023-03-06T03:13:55.039Z,997.8
2023-03-06T03:14:55.038Z,997.9
2023-03-06T03:15:55.102Z,997.8
2023-03-06T03:16:55.041Z,997.9
2023-03-06T03:17:55.041Z,997.9
2023-03-06T03:18:55.049Z,997.9
2023-03-06T03:19:55.053Z,997.8
2023-03-06T03:20:55.061Z,997.8
2023-03-06T03:21:55.065Z,997.8
2023-03-06T03:22:55.249Z,997.8
2023-03-06T03:23:55.086Z,997.9
2023-03-06T03:24:55.227Z,997.8
2023-03-06T03:25:55.092Z,997.8
2023-03-06T03:26:55.132Z,997.8
2023-03-06T03:27:55.105Z,997.7
2023-03-06T03:28:55.109Z,997.8
2023-03-06T03:29:55.124Z,997.7
2023-03-06T03:30:55.209Z,997.8
2023-03-06T03:31:55.147Z,997.7
2023-03-06T03:32:55.162Z,997.7
2023-03-06T03:33:55.161Z,997.8
2023-03-06T03:34:55.165Z,997.8
2023-03-06T03:35:55.241Z,997.8
2023-03-06T03:36:55.179Z,997.7
2023-03-06T03:37:55.253Z,997.7
2023-03-06T03:38:55.191Z,997.8
2023-03-06T03:39:55.192Z,997.6
2023-03-06T03:40:55.214Z,997.7
2023-03-06T03:41:55.224Z,997.8
2023-03-06T03:42:55.217Z,997.7
2023-03-06T03:43:55.237Z,997.7
2023-03-06T03:44:55.231Z,997.7
2023-03-06T03:45:55.249Z,997.8
2023-03-06T03:46:55.240Z,997.7
2023-03-06T03:47:55.256Z,997.7
2023-03-06T03:48:55.250Z,997.7
2023-03-06T03:49:55.309Z,997.7
2023-03-06T03:50:55.276Z,997.8
2023-03-06T03:51:55.280Z,997.7
2023-03-06T03:52:55.293Z,997.8
2023-03-06T03:53:55.285Z,997.7
2023-03-06T03:54:55.305Z,997.7
2023-03-06T03:55:55.299Z,997.7
2023-03-06T03:56:55.302Z,997.6
2023-03-06T03:57:55.305Z,997.7
2023-03-06T03:58:55.312Z,997.7
2023-03-06T03:59:55.317Z,997.7
2023-03-06T04:00:55.326Z,997.7
2023-03-06T04:01:55.376Z,997.6
2023-03-06T04:02:55.335Z,997.6
2023-03-06T04:03:55.345Z,997.7
2023-03-06T04:04:55.443Z,997.7
2023-03-06T04:05:55.361Z,997.7
2023-03-06T04:06:55.376Z,997.6
2023-03-06T04:07:55.372Z,997.6
2023-03-06T04:08:55.394Z,997.6
2023-03-06T04:09:55.380Z,997.6
2023-03-06T04:10:55.395Z,997.6
2023-03-06T04:11:55.419Z,997.6
2023-03-06T04:12:55.408Z,997.6
2023-03-06T04:13:55.409Z,997.6
2023-03-06T04:14:55.431Z,997.6
2023-03-06T04:15:55.518Z,997.6
2023-03-06T04:16:55.420Z,997.5
2023-03-06T04:17:55.429Z,997.5
2023-03-06T04:18:55.434Z,997.5
2023-03-06T04:19:55.438Z,997.5
2023-03-06T04:20:55.444Z,997.5
2023-03-06T04:21:55.463Z,997.5
2023-03-06T04:22:55.455Z,997.5
2023-03-06T04:23:55.463Z,997.5
2023-03-06T04:24:55.473Z,997.6
2023-03-06T04:25:55.487Z,997.5
2023-03-06T04:26:55.479Z,997.5
2023-03-06T04:27:55.484Z,997.5
2023-03-06T04:28:55.498Z,997.5
2023-03-06T04:29:55.501Z,997.5
2023-03-06T04:30:55.505Z,997.4
2023-03-06T04:31:55.510Z,997.4
2023-03-06T04:32:55.520Z,997.4
2023-03-06T04:33:55.540Z,997.4
2023-03-06T04:34:55.541Z,997.3
2023-03-06T04:35:55.662Z,997.3
2023-03-06T04:36:55.543Z,997.3
2023-03-06T04:37:55.550Z,997.3
2023-03-06T04:38:55.603Z,997.3
2023-03-06T04:39:55.562Z,997.3
2023-03-06T04:40:55.781Z,997.2
2023-03-06T04:41:55.586Z,997.2
2023-03-06T04:42:55.578Z,997.3
2023-03-06T04:43:55.595Z,997.3
2023-03-06T04:44:55.606Z,997.3
2023-03-06T04:45:55.768Z,997.2
2023-03-06T04:46:55.606Z,997.2
2023-03-06T04:47:55.612Z,997.3
2023-03-06T04:48:55.624Z,997.3
2023-03-06T04:49:55.621Z,997.2
2023-03-06T04:50:55.633Z,997.3
2023-03-06T04:51:55.638Z,997.3
2023-03-06T04:52:55.651Z,997.2
2023-03-06T04:53:55.660Z,997.2
2023-03-06T04:54:55.669Z,997.2
2023-03-06T04:55:55.670Z,997.2
2023-03-06T04:56:55.684Z,997.2
2023-03-06T04:57:55.699Z,997.3
2023-03-06T04:58:55.723Z,997.2
2023-03-06T04:59:55.728Z,997.2
2023-03-06T05:00:55.818Z,997.2
2023-03-06T05:01:55.880Z,997.2
2023-03-06T05:02:55.722Z,997.1
2023-03-06T05:03:55.728Z,997.2
2023-03-06T05:04:55.983Z,997.0
2023-03-06T05:05:55.748Z,997.1
2023-03-06T05:06:55.745Z,997.2
2023-03-06T05:07:55.769Z,997.2
2023-03-06T05:08:55.762Z,997.1
2023-03-06T05:09:55.763Z,997.1
2023-03-06T05:10:55.767Z,997.1
2023-03-06T05:11:55.779Z,997.1
2023-03-06T05:12:55.803Z,997.1
2023-03-06T05:13:55.800Z,997.2
2023-03-06T05:14:55.798Z,997.1
2023-03-06T05:15:55.803Z,997.1
2023-03-06T05:16:55.813Z,997.0
2023-03-06T05:17:55.814Z,997.1
2023-03-06T05:18:55.823Z,997.1
2023-03-06T05:19:55.830Z,997.1
2023-03-06T05:20:55.834Z,997.1
2023-03-06T05:21:55.842Z,997.1
2023-03-06T05:22:55.837Z,997.1
2023-03-06T05:23:55.957Z,997.1
2023-03-06T05:24:55.863Z,997.0
2023-03-06T05:25:55.871Z,997.0
2023-03-06T05:26:55.875Z,997.1
2023-03-06T05:27:55.878Z,997.0
2023-03-06T05:28:55.893Z,997.1
2023-03-06T05:29:55.889Z,997.0
2023-03-06T05:30:55.907Z,997.0
2023-03-06T05:31:56.157Z,997.0
2023-03-06T05:32:55.918Z,997.1
2023-03-06T05:33:55.915Z,997.1
2023-03-06T05:34:55.924Z,997.1
2023-03-06T05:35:55.987Z,997.1
2023-03-06T05:36:55.945Z,997.0
2023-03-06T05:37:55.950Z,997.0
2023-03-06T05:38:55.971Z,997.0
2023-03-06T05:39:55.965Z,997.0
2023-03-06T05:40:55.978Z,997.0
2023-03-06T05:41:55.981Z,997.0
2023-03-06T05:42:56.016Z,997.0
2023-03-06T05:43:56.007Z,996.9
2023-03-06T05:44:56.028Z,997.0
2023-03-06T05:45:56.056Z,997.0
2023-03-06T05:46:56.028Z,997.0
2023-03-06T05:47:56.038Z,997.0
2023-03-06T05:48:56.040Z,996.9
2023-03-06T05:49:56.057Z,996.9
2023-03-06T05:50:56.061Z,996.8
2023-03-06T05:51:56.082Z,997.0
2023-03-06T05:52:56.082Z,996.9
2023-03-06T05:53:56.093Z,997.0
2023-03-06T05:54:56.097Z,996.9
2023-03-06T05:55:56.105Z,996.9
2023-03-06T05:56:56.120Z,996.9
2023-03-06T05:57:56.139Z,996.9
2023-03-06T05:58:56.135Z,996.9
2023-03-06T05:59:56.141Z,997.0
2023-03-06T06:00:56.145Z,996.9
2023-03-06T06:01:56.167Z,996.9
2023-03-06T06:02:56.162Z,996.9
2023-03-06T06:03:56.165Z,996.9
2023-03-06T06:04:56.201Z,997.0
2023-03-06T06:05:56.168Z,996.9
2023-03-06T06:06:56.184Z,997.0
2023-03-06T06:07:56.183Z,997.0
2023-03-06T06:08:56.188Z,997.0
2023-03-06T06:09:56.204Z,997.0
2023-03-06T06:10:56.205Z,997.0
2023-03-06T06:11:56.225Z,997.0
2023-03-06T06:12:56.217Z,997.0
2023-03-06T06:13:56.221Z,996.9
2023-03-06T06:14:56.232Z,996.9
2023-03-06T06:15:56.282Z,997.0
2023-03-06T06:16:56.248Z,996.9
2023-03-06T06:17:56.262Z,997.0
2023-03-06T06:18:56.260Z,997.0
2023-03-06T06:19:56.258Z,997.0
2023-03-06T06:20:56.273Z,997.0
2023-03-06T06:21:56.273Z,997.0
2023-03-06T06:22:56.281Z,997.0
2023-03-06T06:23:56.300Z,997.0
2023-03-06T06:24:56.292Z,996.9
2023-03-06T06:25:56.301Z,997.0
2023-03-06T06:26:56.314Z,996.9
2023-03-06T06:27:56.316Z,997.0
2023-03-06T06:28:59.064Z,997.0
2023-03-06T06:29:56.319Z,996.9
2023-03-06T06:30:56.357Z,996.9
2023-03-06T06:31:56.337Z,997.0
2023-03-06T06:32:56.346Z,997.0
2023-03-06T06:33:56.348Z,997.0
2023-03-06T06:34:56.353Z,997.0
2023-03-06T06:35:56.465Z,997.0
2023-03-06T06:36:56.365Z,996.9
2023-03-06T06:37:56.372Z,997.0
2023-03-06T06:38:56.380Z,996.9
2023-03-06T06:39:56.388Z,996.9
2023-03-06T06:41:33.293Z,997.0
2023-03-06T06:42:28.513Z,997.0
2023-03-06T06:42:56.404Z,997.0
2023-03-06T06:43:59.255Z,996.9
2023-03-06T06:44:56.422Z,997.0
2023-03-06T06:46:32.284Z,997.0
2023-03-06T06:47:56.616Z,997.0
2023-03-06T06:48:56.477Z,997.0
2023-03-06T06:49:56.510Z,997.0
2023-03-06T06:50:56.685Z,997.0
2023-03-06T06:51:56.484Z,997.0
2023-03-06T06:52:56.489Z,997.0
2023-03-06T06:53:56.493Z,997.0
2023-03-06T06:54:56.497Z,997.1
2023-03-06T06:55:56.508Z,997.0
2023-03-06T06:56:56.509Z,997.0
2023-03-06T06:57:56.517Z,997.0
2023-03-06T06:59:15.946Z,997.0
2023-03-06T06:59:56.529Z,997.0
2023-03-06T07:00:56.542Z,997.0
2023-03-06T07:01:56.535Z,997.1
2023-03-06T07:02:56.540Z,997.1
2023-03-06T07:03:56.666Z,997.1
2023-03-06T07:05:05.629Z,997.1
2023-03-06T07:05:56.574Z,997.1
2023-03-06T07:06:56.566Z,997.0
2023-03-06T07:07:56.573Z,997.0
2023-03-06T07:08:57.597Z,997.0
2023-03-06T07:09:56.609Z,997.0
2023-03-06T07:10:56.602Z,997.0
2023-03-06T07:11:56.605Z,997.0
2023-03-06T07:12:56.648Z,997.0
2023-03-06T07:13:56.622Z,997.0
2023-03-06T07:14:56.626Z,997.0
2023-03-06T07:15:56.720Z,997.0
2023-03-06T07:16:56.630Z,996.9
2023-03-06T07:17:56.641Z,996.9
2023-03-06T07:18:56.648Z,997.0
2023-03-06T07:19:56.682Z,997.0
2023-03-06T07:20:57.098Z,996.9
2023-03-06T07:21:56.665Z,997.0
2023-03-06T07:22:56.680Z,997.0
2023-03-06T07:23:56.698Z,996.9
2023-03-06T07:24:56.706Z,996.9
2023-03-06T07:25:56.699Z,996.9
2023-03-06T07:26:56.773Z,997.0
2023-03-06T07:27:56.844Z,997.0
2023-03-06T07:28:56.760Z,996.9
2023-03-06T07:29:56.728Z,997.0
2023-03-06T07:30:56.802Z,996.9
2023-03-06T07:31:56.759Z,997.0
2023-03-06T07:32:56.820Z,997.0
2023-03-06T07:33:56.759Z,997.0
2023-03-06T07:35:22.003Z,997.0
2023-03-06T07:35:56.889Z,996.9
2023-03-06T07:36:56.841Z,996.9
2023-03-06T07:37:56.811Z,996.9
2023-03-06T07:38:56.803Z,997.0
2023-03-06T07:39:56.802Z,997.0
2023-03-06T07:40:56.816Z,997.0
2023-03-06T07:41:56.814Z,997.0
2023-03-06T07:43:18.579Z,997.0
2023-03-06T07:43:56.838Z,997.0
2023-03-06T07:44:56.849Z,997.0
2023-03-06T07:45:56.850Z,997.0
2023-03-06T07:46:57.021Z,997.1
2023-03-06T07:47:56.859Z,997.1
2023-03-06T07:48:56.873Z,997.1
2023-03-06T07:49:56.869Z,997.0
2023-03-06T07:50:56.878Z,997.0
2023-03-06T07:51:56.883Z,997.0
2023-03-06T07:52:56.889Z,997.0
2023-03-06T07:53:56.909Z,997.1
2023-03-06T07:54:56.906Z,997.1
2023-03-06T07:55:56.926Z,997.0
2023-03-06T07:56:56.924Z,997.0
2023-03-06T07:57:56.927Z,997.1
2023-03-06T07:58:57.304Z,997.0
2023-03-06T07:59:56.974Z,997.1
2023-03-06T08:00:56.952Z,997.0
2023-03-06T08:01:56.958Z,997.1
2023-03-06T08:02:57.098Z,997.1
2023-03-06T08:03:57.189Z,997.1
2023-03-06T08:04:56.981Z,997.1
2023-03-06T08:05:56.985Z,997.1
2023-03-06T08:06:56.985Z,997.1
2023-03-06T08:07:56.994Z,997.1
2023-03-06T08:08:57.004Z,997.2
2023-03-06T08:09:57.010Z,997.1
2023-03-06T08:10:57.005Z,997.2
2023-03-06T08:11:57.016Z,997.1
2023-03-06T08:12:57.048Z,997.2
2023-03-06T08:13:57.031Z,997.1
2023-03-06T08:14:57.050Z,997.1
2023-03-06T08:15:57.104Z,997.2
2023-03-06T08:16:57.050Z,997.1
2023-03-06T08:17:57.059Z,997.2
2023-03-06T08:18:57.075Z,997.3
2023-03-06T08:19:57.070Z,997.2
2023-03-06T08:20:57.082Z,997.3
2023-03-06T08:21:57.082Z,997.3
2023-03-06T08:22:57.094Z,997.3
2023-03-06T08:23:57.096Z,997.2
2023-03-06T08:24:57.108Z,997.3
2023-03-06T08:25:57.120Z,997.2
2023-03-06T08:26:57.118Z,997.2
2023-03-06T08:27:57.123Z,997.3
2023-03-06T08:28:57.132Z,997.3
2023-03-06T08:29:57.133Z,997.3
2023-03-06T08:30:57.152Z,997.3
2023-03-06T08:31:57.160Z,997.3
2023-03-06T08:32:57.166Z,997.3
2023-03-06T08:33:57.173Z,997.3
2023-03-06T08:34:57.176Z,997.3
2023-03-06T08:35:57.267Z,997.3
2023-03-06T08:36:57.212Z,997.3
2023-03-06T08:37:57.192Z,997.4
2023-03-06T08:38:57.205Z,997.4
2023-03-06T08:39:57.212Z,997.3
2023-03-06T08:40:57.215Z,997.3
2023-03-06T08:41:57.237Z,997.3
2023-03-06T08:42:57.230Z,997.4
2023-03-06T08:43:57.265Z,997.4
2023-03-06T08:44:57.245Z,997.3
2023-03-06T08:45:57.336Z,997.4
2023-03-06T08:46:57.270Z,997.4
2023-03-06T08:47:57.266Z,997.4
2023-03-06T08:48:57.317Z,997.4
2023-03-06T08:50:00.744Z,997.4
2023-03-06T08:50:57.286Z,997.4
2023-03-06T08:51:57.290Z,997.3
2023-03-06T08:52:57.298Z,997.3
2023-03-06T08:53:57.346Z,997.3
2023-03-06T08:54:57.324Z,997.4
2023-03-06T08:55:57.329Z,997.4
2023-03-06T08:56:57.327Z,997.4
2023-03-06T08:57:57.338Z,997.4
2023-03-06T08:58:57.345Z,997.4
2023-03-06T08:59:57.352Z,997.4
2023-03-06T09:00:57.621Z,997.4
2023-03-06T09:01:57.488Z,997.4
2023-03-06T09:02:57.380Z,997.4
2023-03-06T09:03:57.405Z,997.4
2023-03-06T09:04:57.397Z,997.3
2023-03-06T09:05:57.392Z,997.4
2023-03-06T09:06:57.398Z,997.5
2023-03-06T09:07:57.414Z,997.5
2023-03-06T09:08:57.434Z,997.4
2023-03-06T09:09:57.420Z,997.4
2023-03-06T09:10:57.509Z,997.5
2023-03-06T09:11:57.451Z,997.5
2023-03-06T09:12:57.444Z,997.5
2023-03-06T09:13:57.450Z,997.4
2023-03-06T09:14:57.459Z,997.5
2023-03-06T09:15:57.487Z,997.5
2023-03-06T09:16:57.586Z,997.4
2023-03-06T09:17:57.650Z,997.4
2023-03-06T09:18:57.489Z,997.5
2023-03-06T09:19:57.501Z,997.4
2023-03-06T09:20:57.660Z,997.4
2023-03-06T09:21:57.514Z,997.4
2023-03-06T09:22:57.528Z,997.5
2023-03-06T09:23:57.535Z,997.5
2023-03-06T09:24:57.539Z,997.4
2023-03-06T09:25:57.542Z,997.5
2023-03-06T09:26:57.553Z,997.5
2023-03-06T09:28:11.519Z,997.5
2023-03-06T09:28:57.564Z,997.5
2023-03-06T09:29:57.570Z,997.5
2023-03-06T09:30:57.650Z,997.5
2023-03-06T09:31:57.595Z,997.5
2023-03-06T09:32:57.605Z,997.5
2023-03-06T09:33:58.619Z,997.6
2023-03-06T09:34:57.626Z,997.6
2023-03-06T09:35:57.828Z,997.5
2023-03-06T09:36:57.880Z,997.4
2023-03-06T09:37:57.647Z,997.5
2023-03-06T09:38:57.678Z,997.5
2023-03-06T09:39:57.674Z,997.6
2023-03-06T09:40:57.675Z,997.6
2023-03-06T09:41:58.036Z,997.5
2023-03-06T09:42:57.689Z,997.5
2023-03-06T09:43:57.696Z,997.5
2023-03-06T09:44:57.706Z,997.5
2023-03-06T09:45:57.805Z,997.5
2023-03-06T09:46:57.737Z,997.5
2023-03-06T09:47:57.728Z,997.5
2023-03-06T09:48:57.737Z,997.5
2023-03-06T09:49:57.745Z,997.5
2023-03-06T09:50:59.736Z,997.5
2023-03-06T09:51:57.758Z,997.6
2023-03-06T09:52:57.764Z,997.6
2023-03-06T09:53:57.782Z,997.5
2023-03-06T09:54:57.795Z,997.5
2023-03-06T09:55:57.796Z,997.5
2023-03-06T09:56:57.799Z,997.4
2023-03-06T09:57:57.807Z,997.4
2023-03-06T09:58:57.827Z,997.5
2023-03-06T09:59:57.845Z,997.5
2023-03-06T10:00:57.838Z,997.5
2023-03-06T10:01:57.942Z,997.5
2023-03-06T10:02:58.072Z,997.5
2023-03-06T10:03:57.870Z,997.5
2023-03-06T10:04:57.967Z,997.5
2023-03-06T10:05:57.876Z,997.5
2023-03-06T10:06:57.877Z,997.5
2023-03-06T10:07:57.889Z,997.5
2023-03-06T10:08:57.906Z,997.5
2023-03-06T10:09:57.899Z,997.5
2023-03-06T10:10:57.914Z,997.5
2023-03-06T10:11:57.921Z,997.4
2023-03-06T10:12:57.925Z,997.4
2023-03-06T10:13:57.929Z,997.4
2023-03-06T10:14:57.952Z,997.4
2023-03-06T10:15:58.069Z,997.4
2023-03-06T10:16:57.950Z,997.3
2023-03-06T10:17:57.967Z,997.4
2023-03-06T10:18:57.970Z,997.3
2023-03-06T10:19:57.977Z,997.3
2023-03-06T10:21:17.237Z,997.4
2023-03-06T10:21:57.983Z,997.3
2023-03-06T10:23:05.232Z,997.4
2023-03-06T10:23:58.007Z,997.3
2023-03-06T10:24:58.012Z,997.3
2023-03-06T10:25:58.018Z,997.3
2023-03-06T10:26:58.285Z,997.3
2023-03-06T10:27:58.029Z,997.2
2023-03-06T10:28:58.037Z,997.3
2023-03-06T10:30:04.331Z,997.2
2023-03-06T10:30:58.212Z,997.3
2023-03-06T10:31:58.066Z,997.3
2023-03-06T10:32:58.174Z,997.3
2023-03-06T10:33:58.074Z,997.3
2023-03-06T10:34:58.076Z,997.3
2023-03-06T10:35:58.189Z,997.3
2023-03-06T10:36:58.101Z,997.3
2023-03-06T10:37:58.121Z,997.2
2023-03-06T10:38:58.142Z,997.2
2023-03-06T10:39:58.135Z,997.2
2023-03-06T10:40:58.151Z,997.2
2023-03-06T10:41:58.151Z,997.2
2023-03-06T10:43:11.598Z,997.2
2023-03-06T10:43:58.174Z,997.1
2023-03-06T10:44:58.164Z,997.2
2023-03-06T10:45:58.316Z,997.2
2023-03-06T10:46:58.197Z,997.2
2023-03-06T10:47:58.193Z,997.2
2023-03-06T10:48:58.209Z,997.2
2023-03-06T10:49:58.214Z,997.2
2023-03-06T10:51:02.797Z,997.1
2023-03-06T10:51:58.222Z,997.1
2023-03-06T10:52:58.235Z,997.2
2023-03-06T10:53:58.240Z,997.0
2023-03-06T10:54:58.244Z,997.1
2023-03-06T10:55:58.292Z,997.1
2023-03-06T10:56:58.284Z,997.2
2023-03-06T10:57:58.284Z,997.1
2023-03-06T10:58:58.280Z,997.1
2023-03-06T10:59:58.310Z,997.1
2023-03-06T11:00:58.307Z,997.1
2023-03-06T11:01:58.473Z,997.1
2023-03-06T11:02:58.311Z,997.1
2023-03-06T11:03:58.321Z,996.9
2023-03-06T11:04:58.341Z,997.1
2023-03-06T11:05:58.427Z,997.0
2023-03-06T11:06:58.339Z,997.1
2023-03-06T11:07:58.350Z,997.0
2023-03-06T11:08:58.359Z,997.0
2023-03-06T11:09:58.423Z,996.9
2023-03-06T11:10:58.398Z,997.0
2023-03-06T11:11:58.380Z,997.1
2023-03-06T11:12:58.396Z,997.1
2023-03-06T11:13:58.408Z,997.1
2023-03-06T11:14:58.415Z,997.1
2023-03-06T11:15:58.528Z,997.0
2023-03-06T11:16:58.441Z,997.1
2023-03-06T11:17:58.456Z,997.0
2023-03-06T11:18:58.472Z,997.0
2023-03-06T11:19:58.457Z,997.1
2023-03-06T11:20:58.474Z,997.1
2023-03-06T11:21:58.471Z,997.2
2023-03-06T11:22:58.490Z,997.2
2023-03-06T11:23:58.488Z,997.1
2023-03-06T11:24:58.496Z,997.1
2023-03-06T11:25:58.526Z,997.1
2023-03-06T11:26:58.525Z,997.2
2023-03-06T11:27:58.532Z,997.0
2023-03-06T11:28:58.648Z,997.1
2023-03-06T11:29:58.542Z,997.2
2023-03-06T11:30:58.708Z,997.1
2023-03-06T11:31:58.543Z,997.0
2023-03-06T11:32:58.549Z,997.0
2023-03-06T11:33:58.561Z,997.0
2023-03-06T11:34:58.568Z,997.0
2023-03-06T11:35:58.699Z,997.0
2023-03-06T11:36:58.586Z,997.0
2023-03-06T11:37:58.589Z,997.0
2023-03-06T11:38:58.593Z,997.0
2023-03-06T11:39:58.603Z,996.9
2023-03-06T11:40:58.625Z,996.9
2023-03-06T11:41:58.629Z,996.9
2023-03-06T11:42:58.648Z,996.9
2023-03-06T11:43:58.648Z,996.9
2023-03-06T11:44:58.908Z,996.8
2023-03-06T11:45:58.738Z,996.8
2023-03-06T11:46:58.779Z,996.8
2023-03-06T11:47:58.701Z,996.9
2023-03-06T11:48:58.679Z,996.8
2023-03-06T11:49:58.683Z,996.8
2023-03-06T11:50:58.691Z,996.8
2023-03-06T11:51:58.729Z,996.8
2023-03-06T11:52:58.735Z,996.8
2023-03-06T11:53:58.761Z,996.8
2023-03-06T11:54:58.749Z,996.8
2023-03-06T11:55:58.738Z,996.8
2023-03-06T11:56:58.758Z,996.8
2023-03-06T11:57:58.765Z,996.7
2023-03-06T11:58:58.777Z,996.8
2023-03-06T11:59:58.765Z,996.8
2023-03-06T12:00:58.782Z,996.8
2023-03-06T12:01:58.825Z,996.8
2023-03-06T12:02:58.789Z,996.8
2023-03-06T12:03:58.812Z,996.7
2023-03-06T12:04:58.939Z,996.7
2023-03-06T12:05:58.832Z,996.8
2023-03-06T12:06:58.838Z,996.7
2023-03-06T12:07:58.834Z,996.7
2023-03-06T12:08:58.852Z,996.7
2023-03-06T12:09:58.866Z,996.7
2023-03-06T12:10:58.863Z,996.8
2023-03-06T12:11:58.868Z,996.7
2023-03-06T12:12:58.876Z,996.7
2023-03-06T12:14:01.073Z,996.7
2023-03-06T12:14:58.900Z,996.8
2023-03-06T12:15:58.912Z,996.7
2023-03-06T12:16:58.908Z,996.7
2023-03-06T12:17:58.920Z,996.7
2023-03-06T12:18:58.935Z,996.7
2023-03-06T12:19:58.956Z,996.7
2023-03-06T12:20:58.950Z,996.7
2023-03-06T12:21:58.965Z,996.7
2023-03-06T12:23:15.202Z,996.7
2023-03-06T12:23:58.979Z,996.7
2023-03-06T12:24:59.017Z,996.7
2023-03-06T12:25:59.013Z,996.7
2023-03-06T12:26:59.018Z,996.6
2023-03-06T12:27:59.025Z,996.6
2023-03-06T12:28:59.086Z,996.7
2023-03-06T12:29:59.056Z,996.7
2023-03-06T12:30:59.168Z,996.6
2023-03-06T12:31:59.173Z,996.6
2023-03-06T12:32:59.084Z,996.7
2023-03-06T12:33:59.078Z,996.5
2023-03-06T12:34:59.107Z,996.6
2023-03-06T12:35:59.274Z,996.6
2023-03-06T12:36:59.119Z,996.5
2023-03-06T12:37:59.147Z,996.6
2023-03-06T12:38:59.128Z,996.5
2023-03-06T12:39:59.193Z,996.6
2023-03-06T12:40:59.165Z,996.6
2023-03-06T12:41:59.156Z,996.6
2023-03-06T12:42:59.296Z,996.5
2023-03-06T12:43:59.186Z,996.6
2023-03-06T12:44:59.188Z,996.5
2023-03-06T12:45:59.336Z,996.5
2023-03-06T12:46:59.206Z,996.5
2023-03-06T12:47:59.213Z,996.5
2023-03-06T12:48:59.234Z,996.5
2023-03-06T12:49:59.226Z,996.4
2023-03-06T12:50:59.236Z,996.5
2023-03-06T12:51:59.255Z,996.5
2023-03-06T12:52:59.253Z,996.5
2023-03-06T12:53:59.283Z,996.5
2023-03-06T12:54:59.401Z,996.5
2023-03-06T12:55:59.296Z,996.5
2023-03-06T12:56:59.284Z,996.5
2023-03-06T12:57:59.297Z,996.5
2023-03-06T12:58:59.306Z,996.5
2023-03-06T12:59:59.324Z,996.5
2023-03-06T13:01:04.837Z,996.5
2023-03-06T13:01:59.322Z,996.5
2023-03-06T13:02:59.343Z,996.5
2023-03-06T13:03:59.355Z,996.4
2023-03-06T13:04:59.462Z,996.4
2023-03-06T13:05:59.359Z,996.5
2023-03-06T13:06:59.370Z,996.4
2023-03-06T13:07:59.379Z,996.3
2023-03-06T13:08:59.390Z,996.4
2023-03-06T13:09:59.402Z,996.3
2023-03-06T13:10:59.410Z,996.3